Time;durP1;ratioP1;P1;durP2;ratioP2;P2;SDS_P1;SDS_P2;PMS_P1;PMS_P2;Temp;Humidity;BMP_temperature;BMP_pressure;BME280_temperature;BME280_humidity;BME280_pressure;Samples;Min_cycle;Max_cycle;Signal;HPM_P1;HPM_P2
2023/01/09 00:00:23;;;;;;;5.90;3.00;;;6.30;91.20;;;;;;4982238;28;20076;-76
2023/01/09 00:02:49;;;;;;;7.50;3.10;;;6.30;91.30;;;;;;4987127;28;20412;-78
2023/01/09 00:05:16;;;;;;;7.07;3.30;;;6.30;91.20;;;;;;4986394;28;20058;-75
2023/01/09 00:07:42;;;;;;;7.95;3.42;;;6.30;91.20;;;;;;4982935;28;20045;-76
2023/01/09 00:10:09;;;;;;;8.55;3.40;;;6.30;91.20;;;;;;4987375;28;20117;-77
2023/01/09 00:12:35;;;;;;;8.40;3.67;;;6.30;91.20;;;;;;4983000;28;20319;-76
2023/01/09 00:15:02;;;;;;;7.57;3.45;;;6.20;91.10;;;;;;4990917;28;20120;-75
2023/01/09 00:17:27;;;;;;;7.20;3.38;;;6.20;91.20;;;;;;4988234;28;20034;-77
2023/01/09 00:19:53;;;;;;;7.80;3.28;;;6.20;91.10;;;;;;4996823;28;20368;-76
2023/01/09 00:22:19;;;;;;;10.23;3.67;;;6.20;91.20;;;;;;4986515;28;20042;-77
2023/01/09 00:24:45;;;;;;;10.43;3.45;;;6.20;91.10;;;;;;4992581;28;20014;-76
2023/01/09 00:27:13;;;;;;;10.02;3.40;;;6.20;91.20;;;;;;4995079;28;20538;-77
2023/01/09 00:29:40;;;;;;;9.60;3.60;;;6.20;91.20;;;;;;5000772;28;20076;-77
2023/01/09 00:32:09;;;;;;;7.32;3.28;;;6.10;91.20;;;;;;4991869;28;20065;-76
2023/01/09 00:34:36;;;;;;;8.40;3.95;;;6.10;91.20;;;;;;4992220;28;20026;-76
2023/01/09 00:37:03;;;;;;;8.32;3.30;;;6.10;91.40;;;;;;4986251;28;20038;-77
2023/01/09 00:39:28;;;;;;;9.60;3.55;;;6.20;91.30;;;;;;4992456;28;20669;-76
2023/01/09 00:41:57;;;;;;;8.48;3.60;;;6.20;91.20;;;;;;4987118;28;20049;-76
2023/01/09 00:44:31;;;;;;;9.55;3.97;;;6.10;91.10;;;;;;4991529;28;20522;-77
2023/01/09 00:47:01;;;;;;;8.20;3.75;;;6.10;91.10;;;;;;4984005;28;20037;-78
2023/01/09 00:49:34;;;;;;;6.97;3.50;;;6.10;91.20;;;;;;4990991;28;20046;-76
2023/01/09 00:52:00;;;;;;;7.85;3.90;;;6.20;91.10;;;;;;4981915;28;20201;-76
2023/01/09 00:54:28;;;;;;;7.43;3.65;;;6.10;91.10;;;;;;4993157;28;20030;-77
2023/01/09 00:56:54;;;;;;;8.75;4.10;;;6.20;91.20;;;;;;4994091;28;20033;-76
2023/01/09 00:59:21;;;;;;;10.60;3.50;;;6.10;91.20;;;;;;4988894;28;20026;-76
2023/01/09 01:01:47;;;;;;;9.25;3.17;;;6.20;91.20;;;;;;4984529;28;20038;-76
2023/01/09 01:10:01;;;;;;;9.10;3.85;;;6.20;91.00;;;;;;4980386;28;20745;-76
2023/01/09 01:12:27;;;;;;;12.30;4.03;;;6.30;90.80;;;;;;4978166;28;20116;-76
2023/01/09 01:14:52;;;;;;;7.88;3.35;;;6.30;90.60;;;;;;4981234;28;20550;-77
2023/01/09 01:17:18;;;;;;;10.38;3.40;;;6.30;90.50;;;;;;4995197;28;20128;-77
2023/01/09 01:19:44;;;;;;;7.63;3.17;;;6.30;90.40;;;;;;5003315;28;20390;-76
2023/01/09 01:22:10;;;;;;;8.25;3.05;;;6.30;90.40;;;;;;5001450;28;20042;-75
2023/01/09 01:24:35;;;;;;;5.57;2.90;;;6.30;90.40;;;;;;5003606;28;20109;-76
2023/01/09 01:27:01;;;;;;;10.35;3.13;;;6.40;90.30;;;;;;5007498;28;20418;-76
2023/01/09 01:29:27;;;;;;;7.38;3.15;;;6.40;90.20;;;;;;5010983;28;20504;-76
2023/01/09 01:31:53;;;;;;;8.18;2.97;;;6.30;90.00;;;;;;5000081;28;20128;-77
2023/01/09 01:34:18;;;;;;;7.32;2.95;;;6.30;90.00;;;;;;5009861;28;20026;-76
2023/01/09 01:36:44;;;;;;;7.68;2.85;;;6.30;89.90;;;;;;5001646;28;20053;-76
2023/01/09 01:39:10;;;;;;;10.00;3.40;;;6.30;89.70;;;;;;5006529;28;20127;-76
2023/01/09 01:41:37;;;;;;;8.18;2.83;;;6.30;89.80;;;;;;5013897;28;20041;-75
2023/01/09 01:44:44;;;;;;;7.80;3.22;;;6.20;89.80;;;;;;5014752;28;20622;-76
2023/01/09 01:47:09;;;;;;;8.10;2.95;;;6.20;89.80;;;;;;5003259;28;20025;-78
2023/01/09 01:49:36;;;;;;;9.68;2.97;;;6.20;89.80;;;;;;5013132;28;20052;-77
2023/01/09 01:52:01;;;;;;;9.52;3.10;;;6.20;89.90;;;;;;5000659;28;20120;-76
2023/01/09 01:54:30;;;;;;;13.10;3.30;;;6.30;89.90;;;;;;5013846;28;20518;-77
2023/01/09 01:57:02;;;;;;;8.20;2.70;;;6.40;89.70;;;;;;5005992;28;20784;-76
2023/01/09 01:59:48;;;;;;;7.38;2.75;;;6.40;89.60;;;;;;5008286;28;20021;-78
2023/01/09 02:02:18;;;;;;;9.60;3.13;;;6.50;89.40;;;;;;4999187;28;20038;-76
2023/01/09 02:04:45;;;;;;;10.38;3.10;;;6.60;89.30;;;;;;5002344;28;20022;-76
2023/01/09 02:07:10;;;;;;;11.45;3.53;;;6.50;89.30;;;;;;5013027;28;20541;-77
2023/01/09 02:09:39;;;;;;;6.10;2.55;;;6.60;89.20;;;;;;5017160;28;20017;-76
2023/01/09 02:12:17;;;;;;;12.30;3.15;;;6.60;89.10;;;;;;5011265;28;20641;-76
2023/01/09 02:14:44;;;;;;;6.78;2.70;;;6.60;88.90;;;;;;5017699;28;20065;-76
2023/01/09 02:17:31;;;;;;;9.38;2.75;;;6.60;88.70;;;;;;5003738;28;20042;-77
2023/01/09 02:20:02;;;;;;;10.15;3.05;;;6.60;88.70;;;;;;5009449;28;20032;-76
2023/01/09 02:22:37;;;;;;;8.32;2.55;;;6.60;88.60;;;;;;5015097;28;21332;-76
2023/01/09 02:25:30;;;;;;;10.32;3.00;;;6.60;88.60;;;;;;5018337;28;20042;-77
2023/01/09 02:28:20;;;;;;;7.70;2.38;;;6.60;88.50;;;;;;5018533;28;20033;-77
2023/01/09 02:31:09;;;;;;;6.50;2.83;;;6.60;88.60;;;;;;5014941;28;20427;-77
2023/01/09 02:33:46;;;;;;;8.77;2.25;;;6.50;88.40;;;;;;5009955;28;20522;-76
2023/01/09 02:36:15;;;;;;;4.82;1.83;;;6.50;88.60;;;;;;5018163;28;20397;-77
2023/01/09 02:39:14;;;;;;;7.82;2.33;;;6.60;88.60;;;;;;5014154;28;20030;-76
2023/01/09 02:42:09;;;;;;;8.07;2.25;;;6.60;88.40;;;;;;5020490;28;20091;-76
2023/01/09 02:44:35;;;;;;;8.77;2.50;;;6.60;88.30;;;;;;5000017;28;20062;-76
2023/01/09 02:47:26;;;;;;;7.63;2.47;;;6.60;88.30;;;;;;5008485;28;20034;-76
2023/01/09 02:50:02;;;;;;;8.38;2.42;;;6.60;88.40;;;;;;5015621;28;20115;-76
2023/01/09 02:52:48;;;;;;;10.48;2.47;;;6.50;88.40;;;;;;5018291;28;20211;-76
2023/01/09 02:55:32;;;;;;;9.45;2.88;;;6.50;88.50;;;;;;5017058;28;20045;-77
2023/01/09 02:58:17;;;;;;;8.25;2.50;;;6.50;88.50;;;;;;5014805;28;20146;-77
2023/01/09 03:01:01;;;;;;;8.43;2.42;;;6.40;88.60;;;;;;5010548;28;20026;-77
2023/01/09 03:03:48;;;;;;;6.00;2.00;;;6.40;88.60;;;;;;5005180;28;20024;-77
2023/01/09 03:06:37;;;;;;;7.40;2.13;;;6.50;88.60;;;;;;5001362;28;20033;-76
2023/01/09 03:09:16;;;;;;;9.02;2.50;;;6.50;88.50;;;;;;5001546;28;20022;-76
2023/01/09 03:11:50;;;;;;;8.15;2.60;;;6.60;88.50;;;;;;5007567;28;20044;-76
2023/01/09 03:14:20;;;;;;;6.00;2.30;;;6.60;88.30;;;;;;5011170;28;20054;-76
2023/01/09 03:16:49;;;;;;;10.35;2.33;;;6.60;88.20;;;;;;5009098;28;20046;-76
2023/01/09 03:19:19;;;;;;;11.35;2.67;;;6.60;88.40;;;;;;5007611;28;20036;-76
2023/01/09 03:21:46;;;;;;;11.20;2.72;;;6.60;88.30;;;;;;5011411;28;20305;-77
2023/01/09 03:24:12;;;;;;;11.55;3.38;;;6.60;88.30;;;;;;5005979;28;20490;-76
2023/01/09 03:26:38;;;;;;;9.43;2.40;;;6.60;88.40;;;;;;5015066;28;20080;-77
2023/01/09 03:29:04;;;;;;;10.75;2.95;;;6.60;88.40;;;;;;5015570;28;20029;-76
2023/01/09 03:31:29;;;;;;;7.80;2.50;;;6.60;88.50;;;;;;5018570;28;20053;-76
2023/01/09 03:33:55;;;;;;;13.40;2.58;;;6.60;88.50;;;;;;5009503;28;20370;-76
2023/01/09 03:36:23;;;;;;;10.60;2.78;;;6.70;88.50;;;;;;5016337;28;20567;-76
2023/01/09 03:38:50;;;;;;;11.15;2.55;;;6.70;88.60;;;;;;5012014;28;20026;-76
2023/01/09 03:41:16;;;;;;;9.32;2.58;;;6.80;88.60;;;;;;5003922;28;20049;-76
2023/01/09 03:43:42;;;;;;;10.32;2.97;;;6.80;88.60;;;;;;5010970;28;20459;-77
2023/01/09 03:46:07;;;;;;;11.15;2.72;;;6.80;88.60;;;;;;5003839;28;20092;-76
2023/01/09 03:48:33;;;;;;;11.32;2.45;;;6.80;88.60;;;;;;5008799;28;20517;-75
2023/01/09 03:50:59;;;;;;;10.95;2.90;;;6.80;88.50;;;;;;5004521;28;20033;-76
2023/01/09 03:53:26;;;;;;;15.15;2.60;;;6.90;88.40;;;;;;5013938;28;20025;-76
2023/01/09 03:55:53;;;;;;;10.55;2.10;;;6.90;88.50;;;;;;5003279;28;20526;-76
2023/01/09 03:58:20;;;;;;;9.95;2.72;;;6.90;88.60;;;;;;5004776;28;20467;-79
2023/01/09 04:00:49;;;;;;;12.45;3.05;;;6.90;88.60;;;;;;5001907;28;20114;-76
2023/01/09 04:03:18;;;;;;;13.27;3.10;;;6.90;88.60;;;;;;5006155;28;20017;-76
2023/01/09 04:05:45;;;;;;;14.63;2.40;;;6.90;88.70;;;;;;5010622;28;20065;-78
2023/01/09 04:08:10;;;;;;;9.73;2.50;;;6.90;88.70;;;;;;5005538;28;20800;-76
2023/01/09 04:10:36;;;;;;;8.45;2.53;;;6.90;88.80;;;;;;5011793;28;20033;-75
2023/01/09 04:13:02;;;;;;;10.65;2.75;;;6.90;88.90;;;;;;5003882;28;20034;-76
2023/01/09 04:15:27;;;;;;;9.57;2.70;;;6.90;89.00;;;;;;5004029;28;20049;-75
2023/01/09 04:17:53;;;;;;;11.93;2.80;;;6.90;89.00;;;;;;5005000;28;20129;-76
2023/01/09 04:20:19;;;;;;;13.50;3.05;;;7.00;89.10;;;;;;5008958;28;20442;-77
2023/01/09 04:22:44;;;;;;;18.08;3.00;;;7.00;89.10;;;;;;5008616;28;20026;-76
2023/01/09 04:25:10;;;;;;;10.00;2.35;;;7.00;89.20;;;;;;5008389;28;20068;-77
2023/01/09 04:27:36;;;;;;;9.50;2.45;;;7.00;89.20;;;;;;5010600;28;20176;-76
2023/01/09 04:30:02;;;;;;;12.10;3.00;;;7.00;89.20;;;;;;5011186;28;20076;-77
2023/01/09 04:32:28;;;;;;;15.85;3.00;;;7.00;89.30;;;;;;5009124;28;20029;-77
2023/01/09 04:34:54;;;;;;;13.82;2.65;;;7.10;89.30;;;;;;5007967;28;20092;-76
2023/01/09 04:37:20;;;;;;;14.90;3.55;;;7.10;89.30;;;;;;5013499;28;20071;-76
2023/01/09 04:39:46;;;;;;;14.27;3.05;;;7.10;89.40;;;;;;5015030;28;20033;-78
2023/01/09 04:42:12;;;;;;;10.82;3.08;;;7.10;89.60;;;;;;5019570;28;20055;-76
2023/01/09 04:44:38;;;;;;;15.35;3.60;;;7.10;89.60;;;;;;5023457;28;20021;-76
2023/01/09 04:47:04;;;;;;;14.45;2.85;;;7.10;89.70;;;;;;5006963;28;20049;-77
2023/01/09 04:49:30;;;;;;;11.48;3.17;;;7.10;89.70;;;;;;5012548;28;20030;-76
2023/01/09 04:51:56;;;;;;;13.48;3.22;;;7.10;89.80;;;;;;5007567;28;20032;-77
2023/01/09 04:54:21;;;;;;;14.02;3.25;;;7.10;89.90;;;;;;5004531;28;20030;-76
2023/01/09 04:56:47;;;;;;;13.23;3.22;;;7.10;90.10;;;;;;5004686;28;20065;-78
2023/01/09 04:59:13;;;;;;;12.38;3.30;;;7.20;90.30;;;;;;5007301;28;20581;-77
2023/01/09 05:01:39;;;;;;;13.68;2.92;;;7.20;90.30;;;;;;5009544;28;20037;-76
2023/01/09 05:04:05;;;;;;;11.23;2.78;;;7.30;90.30;;;;;;5011511;28;20602;-78
2023/01/09 05:06:31;;;;;;;11.32;3.05;;;7.40;90.20;;;;;;5001728;28;20037;-77
2023/01/09 05:08:57;;;;;;;12.93;3.13;;;7.30;90.20;;;;;;5002767;28;20034;-77
2023/01/09 05:11:24;;;;;;;15.20;3.72;;;7.40;90.30;;;;;;5003898;28;20701;-77
2023/01/09 05:13:50;;;;;;;12.10;2.85;;;7.40;90.30;;;;;;4994855;28;20025;-76
2023/01/09 05:16:16;;;;;;;24.13;4.30;;;7.50;90.40;;;;;;4994798;28;20053;-76
2023/01/09 05:18:41;;;;;;;12.43;3.63;;;7.50;90.40;;;;;;5006844;28;20041;-76
2023/01/09 05:21:07;;;;;;;17.13;2.75;;;7.50;90.40;;;;;;5002949;28;20195;-76
2023/01/09 05:23:33;;;;;;;14.43;3.67;;;7.50;90.30;;;;;;5009603;28;20081;-78
2023/01/09 05:25:58;;;;;;;17.38;2.53;;;7.50;90.30;;;;;;5004540;28;20593;-75
2023/01/09 05:28:24;;;;;;;13.40;3.13;;;7.50;90.20;;;;;;5005860;28;20112;-76
2023/01/09 05:30:50;;;;;;;10.45;2.60;;;7.60;90.20;;;;;;4998840;28;20113;-77
2023/01/09 05:33:15;;;;;;;12.77;3.28;;;7.60;89.90;;;;;;5001621;28;20026;-75
2023/01/09 05:35:41;;;;;;;12.52;2.75;;;7.60;89.80;;;;;;4999330;28;20046;-77
2023/01/09 05:38:07;;;;;;;12.18;3.00;;;7.60;89.90;;;;;;5004546;28;20425;-75
2023/01/09 05:40:32;;;;;;;10.98;3.15;;;7.60;89.70;;;;;;4999714;28;20014;-75
2023/01/09 05:42:58;;;;;;;17.10;3.70;;;7.70;89.60;;;;;;5003484;28;20269;-77
2023/01/09 05:45:25;;;;;;;15.65;4.13;;;7.70;89.30;;;;;;5001563;28;20033;-76
2023/01/09 05:47:51;;;;;;;16.25;4.18;;;7.80;89.30;;;;;;5004716;28;20794;-76
2023/01/09 05:50:17;;;;;;;15.88;3.60;;;7.70;89.10;;;;;;5008333;28;20036;-77
2023/01/09 05:52:43;;;;;;;23.35;3.90;;;7.80;89.00;;;;;;4973414;28;20133;-76
2023/01/09 05:55:11;;;;;;;15.95;3.90;;;7.80;88.80;;;;;;4980088;28;20053;-78
2023/01/09 05:57:36;;;;;;;15.52;4.03;;;7.80;88.60;;;;;;4973469;28;20061;-76
2023/01/09 06:00:03;;;;;;;16.02;4.60;;;7.80;88.70;;;;;;4980838;28;20703;-76
2023/01/09 06:02:29;;;;;;;18.58;4.88;;;7.80;88.90;;;;;;4979360;28;20041;-78
2023/01/09 06:04:54;;;;;;;15.63;4.78;;;7.80;88.70;;;;;;4975308;28;20018;-77
2023/01/09 06:07:20;;;;;;;17.70;3.80;;;7.80;88.70;;;;;;4978372;28;20034;-77
2023/01/09 06:09:45;;;;;;;14.57;3.97;;;7.90;88.60;;;;;;4979605;28;20035;-76
2023/01/09 06:12:11;;;;;;;12.50;3.08;;;7.90;88.40;;;;;;4976047;28;20073;-76
2023/01/09 06:14:37;;;;;;;14.70;3.33;;;7.80;88.60;;;;;;4975455;28;20057;-78
2023/01/09 06:17:03;;;;;;;14.98;4.43;;;7.80;88.60;;;;;;4971949;28;20113;-77
2023/01/09 06:19:29;;;;;;;16.52;2.85;;;7.80;88.40;;;;;;4973517;28;20031;-77
2023/01/09 06:21:55;;;;;;;12.32;3.80;;;8.00;88.10;;;;;;4975534;28;20029;-77
2023/01/09 06:24:20;;;;;;;13.45;2.92;;;8.10;87.80;;;;;;4978168;28;20037;-76
2023/01/09 06:26:46;;;;;;;13.35;3.42;;;8.00;87.80;;;;;;4975442;28;20049;-78
2023/01/09 06:29:12;;;;;;;14.13;2.80;;;7.90;88.00;;;;;;4976580;28;20026;-76
2023/01/09 06:31:37;;;;;;;19.85;4.00;;;7.80;88.10;;;;;;4977530;28;20034;-76
2023/01/09 06:34:03;;;;;;;12.20;3.47;;;7.80;87.90;;;;;;4981041;28;20046;-77
2023/01/09 06:36:29;;;;;;;11.93;2.70;;;7.90;87.90;;;;;;4989353;28;20654;-78
2023/01/09 06:38:54;;;;;;;12.60;3.67;;;7.80;87.90;;;;;;5000767;28;20060;-77
2023/01/09 06:41:20;;;;;;;10.95;3.10;;;7.90;87.80;;;;;;4997154;28;20124;-76
2023/01/09 06:43:46;;;;;;;11.38;2.58;;;7.90;87.70;;;;;;5006630;28;20030;-76
2023/01/09 06:46:11;;;;;;;13.52;3.00;;;7.90;87.80;;;;;;4997607;28;20039;-78
2023/01/09 06:48:37;;;;;;;11.90;2.45;;;7.90;87.80;;;;;;5001757;28;20023;-76
2023/01/09 06:51:03;;;;;;;12.32;3.08;;;7.90;87.70;;;;;;5001038;28;20057;-76
2023/01/09 06:53:30;;;;;;;11.98;2.38;;;7.90;87.70;;;;;;5002920;28;20124;-77
2023/01/09 06:55:55;;;;;;;14.13;3.15;;;7.90;87.50;;;;;;5002801;28;20646;-76
2023/01/09 06:58:21;;;;;;;9.02;2.25;;;7.80;87.40;;;;;;5007040;28;20041;-78
2023/01/09 07:00:48;;;;;;;9.60;2.50;;;7.70;87.40;;;;;;5011589;28;20034;-77
2023/01/09 07:03:18;;;;;;;10.85;2.78;;;7.70;87.70;;;;;;5014440;28;20029;-78
2023/01/09 07:05:44;;;;;;;9.05;2.20;;;7.70;87.40;;;;;;4998348;28;20037;-77
2023/01/09 07:08:10;;;;;;;8.75;2.50;;;7.80;87.50;;;;;;5007209;28;20030;-77
2023/01/09 07:10:36;;;;;;;15.43;2.60;;;7.70;87.40;;;;;;5006327;28;20044;-77
2023/01/09 07:13:02;;;;;;;11.23;2.85;;;7.80;87.30;;;;;;5008539;28;20474;-75
2023/01/09 07:15:27;;;;;;;12.30;3.40;;;7.70;87.20;;;;;;5007161;28;20050;-73
2023/01/09 07:17:53;;;;;;;9.70;2.60;;;7.80;87.30;;;;;;5005754;28;20482;-74
2023/01/09 07:20:19;;;;;;;10.88;2.70;;;7.70;87.20;;;;;;5005487;28;20124;-74
2023/01/09 07:22:45;;;;;;;10.32;2.50;;;7.80;87.10;;;;;;5009718;28;20060;-74
2023/01/09 07:25:12;;;;;;;11.48;3.28;;;7.80;87.10;;;;;;5012796;28;20128;-75
2023/01/09 07:27:37;;;;;;;13.13;3.55;;;7.80;86.90;;;;;;5010350;28;20037;-75
2023/01/09 07:30:05;;;;;;;11.95;3.10;;;7.80;86.80;;;;;;5018169;28;20029;-74
2023/01/09 07:32:32;;;;;;;11.95;2.88;;;7.90;86.70;;;;;;5008427;28;20034;-73
2023/01/09 07:34:58;;;;;;;10.23;2.85;;;7.80;86.80;;;;;;5019439;28;20022;-75
2023/01/09 07:37:23;;;;;;;13.82;3.05;;;7.80;87.00;;;;;;5011632;28;20103;-74
2023/01/09 07:39:49;;;;;;;10.23;2.50;;;7.80;86.90;;;;;;5013115;28;20021;-74
2023/01/09 07:42:15;;;;;;;13.13;2.90;;;7.80;87.00;;;;;;5015241;28;20132;-74
2023/01/09 07:44:41;;;;;;;9.10;3.08;;;7.80;87.00;;;;;;5013838;28;20629;-74
2023/01/09 07:47:07;;;;;;;11.93;3.03;;;7.90;86.90;;;;;;5005714;28;20034;-74
2023/01/09 07:49:32;;;;;;;11.07;3.22;;;7.90;87.00;;;;;;5009705;28;20029;-72
2023/01/09 07:51:58;;;;;;;9.18;2.60;;;7.90;86.90;;;;;;5002706;28;20041;-73
2023/01/09 07:54:24;;;;;;;22.73;3.88;;;7.90;86.90;;;;;;5004720;28;20064;-74
2023/01/09 07:56:49;;;;;;;9.75;2.65;;;7.90;86.90;;;;;;5005105;28;20124;-75
2023/01/09 07:59:15;;;;;;;12.30;3.30;;;7.80;86.90;;;;;;5017634;28;20052;-73
2023/01/09 08:01:41;;;;;;;9.48;2.60;;;7.90;87.00;;;;;;5013576;28;20053;-71
2023/01/09 08:04:07;;;;;;;12.38;2.70;;;7.80;87.00;;;;;;5014352;28;20281;-72
2023/01/09 08:06:33;;;;;;;15.02;3.63;;;7.90;87.00;;;;;;5011424;28;20060;-71
2023/01/09 08:08:59;;;;;;;8.55;2.30;;;7.80;87.10;;;;;;5014911;28;20029;-74
2023/01/09 08:11:25;;;;;;;8.35;2.78;;;7.90;87.10;;;;;;5012081;28;20032;-73
2023/01/09 08:13:51;;;;;;;9.07;2.75;;;7.90;87.20;;;;;;5007513;28;20057;-72
2023/01/09 08:16:17;;;;;;;12.02;2.88;;;7.80;87.20;;;;;;5008317;28;20046;-73
2023/01/09 08:18:43;;;;;;;9.02;2.40;;;7.80;87.20;;;;;;5007474;28;20029;-73
2023/01/09 08:21:10;;;;;;;9.25;2.72;;;7.80;87.20;;;;;;5009225;28;20036;-72
2023/01/09 08:23:36;;;;;;;12.20;3.13;;;7.80;87.30;;;;;;5015917;28;20477;-73
2023/01/09 08:26:02;;;;;;;8.52;2.75;;;7.80;87.40;;;;;;5019043;28;20486;-72
2023/01/09 08:28:29;;;;;;;10.70;2.45;;;7.80;87.50;;;;;;5015244;28;20156;-72
2023/01/09 08:30:55;;;;;;;11.38;2.50;;;7.80;87.30;;;;;;5006119;28;20034;-73
2023/01/09 08:33:21;;;;;;;8.70;2.50;;;7.70;87.40;;;;;;5019892;28;20033;-74
2023/01/09 08:35:47;;;;;;;9.00;2.60;;;7.60;87.40;;;;;;5006233;28;20030;-74
2023/01/09 08:38:14;;;;;;;10.68;2.97;;;7.60;87.50;;;;;;5004577;28;20025;-75
2023/01/09 08:40:39;;;;;;;10.30;2.60;;;7.60;87.60;;;;;;5018527;28;20061;-74
2023/01/09 08:48:47;;;;;;;12.57;3.42;;;7.60;87.90;;;;;;5022205;28;20099;-72
2023/01/09 08:51:13;;;;;;;9.95;2.90;;;7.60;87.80;;;;;;5012625;28;20106;-71
2023/01/09 08:53:39;;;;;;;7.57;2.65;;;7.70;87.60;;;;;;5008171;28;20026;-73
2023/01/09 08:56:05;;;;;;;9.85;2.67;;;7.70;87.60;;;;;;5018723;28;20030;-72
2023/01/09 08:58:31;;;;;;;9.18;2.78;;;7.70;87.50;;;;;;5006869;28;20152;-73
2023/01/09 09:00:57;;;;;;;11.77;2.58;;;7.70;87.50;;;;;;5015168;28;20052;-74
2023/01/09 09:03:24;;;;;;;9.05;2.65;;;7.70;87.50;;;;;;5008426;28;20053;-74
2023/01/09 09:05:50;;;;;;;9.85;2.88;;;7.80;87.50;;;;;;5011748;28;20040;-76
2023/01/09 09:08:15;;;;;;;9.77;2.55;;;7.80;87.30;;;;;;5011315;28;20030;-73
2023/01/09 09:10:42;;;;;;;9.25;2.35;;;7.80;87.30;;;;;;5014024;28;20029;-73
2023/01/09 09:13:07;;;;;;;10.02;2.53;;;7.80;87.20;;;;;;5004913;28;20462;-77
2023/01/09 09:15:33;;;;;;;10.40;2.70;;;7.90;87.20;;;;;;5006332;28;20104;-73
2023/01/09 09:18:01;;;;;;;9.85;2.42;;;7.90;87.10;;;;;;5001340;28;20018;-74
2023/01/09 09:20:30;;;;;;;9.07;2.88;;;8.00;87.10;;;;;;5007829;28;20026;-73
2023/01/09 09:22:57;;;;;;;12.15;2.75;;;8.00;86.90;;;;;;5000646;28;20029;-73
2023/01/09 09:25:24;;;;;;;8.32;2.50;;;8.00;86.90;;;;;;5014657;28;20040;-73
2023/01/09 09:27:50;;;;;;;8.77;2.47;;;8.10;86.80;;;;;;5020902;28;20021;-74
2023/01/09 09:30:18;;;;;;;9.77;2.67;;;8.10;86.70;;;;;;5011192;28;20057;-73
2023/01/09 09:32:44;;;;;;;8.75;2.50;;;8.10;86.70;;;;;;5005022;28;20574;-73
2023/01/09 09:35:11;;;;;;;13.20;3.10;;;8.00;86.90;;;;;;5009808;28;20491;-74
2023/01/09 09:37:37;;;;;;;11.00;3.35;;;8.00;86.90;;;;;;5007236;28;20037;-73
2023/01/09 09:40:04;;;;;;;9.15;2.78;;;8.00;87.00;;;;;;5007329;28;20119;-73
2023/01/09 09:46:10;;;;;;;12.50;3.25;;;8.00;87.10;;;;;;5012100;28;20052;-75
2023/01/09 09:48:43;;;;;;;13.45;3.13;;;8.10;87.10;;;;;;5014088;28;20022;-73
2023/01/09 09:51:36;;;;;;;9.82;2.72;;;8.10;87.00;;;;;;5014883;28;20060;-74
2023/01/09 09:54:08;;;;;;;10.15;2.97;;;8.10;87.10;;;;;;4995362;28;20022;-73
2023/01/09 09:56:46;;;;;;;10.60;2.85;;;8.10;87.00;;;;;;5005210;28;20045;-75
2023/01/09 09:59:25;;;;;;;12.32;3.13;;;8.20;87.00;;;;;;5008728;28;20641;-73
2023/01/09 10:01:56;;;;;;;12.40;3.15;;;8.20;86.90;;;;;;5004808;28;20545;-73
2023/01/09 10:04:25;;;;;;;12.48;3.83;;;8.20;86.90;;;;;;5001699;28;20034;-73
2023/01/09 10:06:56;;;;;;;12.23;3.10;;;8.20;86.90;;;;;;5006326;28;20049;-73
2023/01/09 10:09:54;;;;;;;9.88;3.78;;;8.20;87.00;;;;;;5012747;28;21383;-72
2023/01/09 10:12:42;;;;;;;11.18;2.92;;;8.30;86.70;;;;;;5003981;28;20418;-73
2023/01/09 10:15:24;;;;;;;10.77;3.10;;;8.30;86.60;;;;;;5006373;28;20514;-73
2023/01/09 10:18:12;;;;;;;11.20;3.15;;;8.40;86.60;;;;;;4992237;28;20050;-73
2023/01/09 10:20:45;;;;;;;9.15;3.15;;;8.40;86.30;;;;;;5015632;28;20053;-73
2023/01/09 10:23:26;;;;;;;9.73;2.85;;;8.40;86.30;;;;;;5015535;28;20030;-73
2023/01/09 10:26:14;;;;;;;12.65;3.08;;;8.40;86.20;;;;;;5011826;28;20064;-73
2023/01/09 10:28:57;;;;;;;11.85;3.45;;;8.40;86.20;;;;;;5011696;28;20860;-73
2023/01/09 10:31:52;;;;;;;13.63;3.50;;;8.40;86.10;;;;;;5009842;28;20081;-73
2023/01/09 10:34:43;;;;;;;12.73;3.75;;;8.40;85.90;;;;;;5000826;28;20096;-73
2023/01/09 10:37:25;;;;;;;12.25;4.47;;;8.40;86.10;;;;;;5002578;28;20508;-73
2023/01/09 10:40:16;;;;;;;9.68;3.00;;;8.40;86.00;;;;;;5013177;28;20107;-74
2023/01/09 10:42:48;;;;;;;11.63;3.88;;;8.50;85.80;;;;;;5011963;28;20036;-74
2023/01/09 10:45:32;;;;;;;11.68;3.58;;;8.50;85.90;;;;;;5010822;28;20054;-73
2023/01/09 10:48:30;;;;;;;11.60;3.58;;;8.50;85.90;;;;;;5011893;28;20026;-73
2023/01/09 10:50:56;;;;;;;15.00;4.53;;;8.50;86.00;;;;;;5006728;28;20042;-73
2023/01/09 10:53:27;;;;;;;13.65;5.45;;;8.50;86.10;;;;;;5005390;28;20099;-73
2023/01/09 10:56:04;;;;;;;17.15;4.55;;;8.50;86.10;;;;;;5014384;28;20033;-74
2023/01/09 10:58:30;;;;;;;14.18;4.40;;;8.60;86.00;;;;;;5014915;28;20026;-73
2023/01/09 11:00:58;;;;;;;13.00;3.72;;;8.60;85.80;;;;;;5011150;28;20908;-73
2023/01/09 11:03:27;;;;;;;14.25;4.45;;;8.80;85.60;;;;;;5005099;28;20033;-73
2023/01/09 11:05:56;;;;;;;14.43;3.78;;;8.80;85.20;;;;;;5011288;28;20041;-73
2023/01/09 11:08:33;;;;;;;16.00;4.38;;;8.90;84.90;;;;;;5012469;28;20037;-74
2023/01/09 11:11:01;;;;;;;12.68;3.70;;;9.00;84.80;;;;;;5006308;28;20042;-73
2023/01/09 11:13:32;;;;;;;16.60;4.28;;;9.10;84.30;;;;;;5000004;28;20382;-73
2023/01/09 11:16:16;;;;;;;12.20;3.47;;;9.10;84.00;;;;;;5007358;28;20475;-72
2023/01/09 11:18:58;;;;;;;13.30;4.78;;;9.10;84.00;;;;;;5002605;28;20055;-73
2023/01/09 11:21:36;;;;;;;15.90;3.72;;;9.30;84.20;;;;;;4998937;28;20038;-73
2023/01/09 11:24:20;;;;;;;13.73;3.58;;;9.60;83.70;;;;;;5011855;28;20061;-72
2023/01/09 11:26:51;;;;;;;14.07;3.58;;;9.60;82.70;;;;;;5019768;28;20709;-72
2023/01/09 11:29:20;;;;;;;14.52;3.60;;;9.60;82.20;;;;;;5022403;28;20095;-72
2023/01/09 11:31:55;;;;;;;15.05;4.90;;;9.60;82.50;;;;;;5021330;28;20045;-73
2023/01/09 11:34:24;;;;;;;12.88;4.03;;;9.50;82.70;;;;;;5005618;28;20033;-73
2023/01/09 11:36:53;;;;;;;13.75;3.67;;;9.50;82.10;;;;;;5005208;28;20050;-72
2023/01/09 11:39:29;;;;;;;14.40;3.83;;;9.50;82.10;;;;;;5003429;28;20077;-71
2023/01/09 11:41:57;;;;;;;10.88;3.95;;;9.70;82.20;;;;;;5018691;28;20042;-72
2023/01/09 11:44:24;;;;;;;14.93;3.83;;;9.70;81.80;;;;;;5017150;28;20025;-73
2023/01/09 11:46:50;;;;;;;18.42;4.28;;;9.90;80.90;;;;;;5010588;28;20037;-72
2023/01/09 11:49:21;;;;;;;16.92;4.28;;;9.90;80.90;;;;;;5012613;28;20030;-73
2023/01/09 11:52:19;;;;;;;14.65;3.92;;;10.10;80.90;;;;;;5005414;28;20037;-73
2023/01/09 11:54:50;;;;;;;11.50;3.78;;;10.30;79.90;;;;;;4997458;28;20029;-72
2023/01/09 11:57:16;;;;;;;16.85;4.07;;;10.40;79.10;;;;;;5012742;28;20136;-72
2023/01/09 11:59:42;;;;;;;14.43;3.70;;;10.50;79.20;;;;;;5017635;28;20553;-72
2023/01/09 12:02:35;;;;;;;14.38;3.83;;;10.40;79.00;;;;;;5016080;28;20028;-74
2023/01/09 12:05:18;;;;;;;14.85;3.72;;;10.40;78.60;;;;;;5013733;28;20030;-74
2023/01/09 12:08:06;;;;;;;16.70;3.63;;;10.40;78.20;;;;;;5011427;28;20061;-74
2023/01/09 12:10:52;;;;;;;11.63;3.25;;;10.30;78.80;;;;;;5015958;28;20305;-72
2023/01/09 12:13:39;;;;;;;13.23;3.55;;;10.10;78.30;;;;;;5008380;28;20107;-73
2023/01/09 12:16:12;;;;;;;12.98;3.88;;;10.10;79.30;;;;;;5007616;28;20046;-73
2023/01/09 12:18:53;;;;;;;17.90;4.68;;;10.10;79.30;;;;;;5002520;28;20764;-73
2023/01/09 12:21:34;;;;;;;14.68;3.90;;;10.10;78.40;;;;;;5004315;28;20034;-74
2023/01/09 12:24:19;;;;;;;15.07;3.50;;;10.20;78.90;;;;;;5005900;28;20663;-72
2023/01/09 12:27:05;;;;;;;;;;;10.10;77.50;;;;;;5004061;28;20049;-74
2023/01/09 12:29:33;;;;;;;;;;;10.10;78.30;;;;;;5016757;28;19909;-73
2023/01/09 12:32:36;;;;;;;18.63;4.45;;;10.10;78.20;;;;;;5005491;28;20621;-73
2023/01/09 12:35:56;;;;;;;14.77;3.03;;;9.90;77.70;;;;;;5003319;28;20018;-73
2023/01/09 12:38:40;;;;;;;12.98;4.10;;;9.80;78.10;;;;;;4940183;28;20546;-72
2023/01/09 12:41:29;;;;;;;13.18;2.95;;;9.60;78.10;;;;;;4995811;28;20088;-72
2023/01/09 12:44:24;;;;;;;17.27;3.28;;;9.60;78.10;;;;;;5000844;28;20025;-71
2023/01/09 12:47:08;;;;;;;14.13;3.22;;;9.40;77.90;;;;;;5004242;28;20068;-72
2023/01/09 12:49:38;;;;;;;17.57;3.43;;;9.50;78.00;;;;;;5004962;28;20401;-72
2023/01/09 12:52:22;;;;;;;12.45;3.30;;;9.60;77.30;;;;;;5004624;28;20797;-72
2023/01/09 12:55:13;;;;;;;14.73;3.38;;;9.70;76.60;;;;;;5006093;28;20018;-72
2023/01/09 12:57:44;;;;;;;16.65;3.85;;;9.80;75.90;;;;;;5011413;28;20049;-72
2023/01/09 13:00:34;;;;;;;14.05;3.75;;;10.00;75.60;;;;;;4998056;28;20076;-72
2023/01/09 13:03:04;;;;;;;16.58;3.20;;;10.30;75.30;;;;;;5004647;28;20149;-72
2023/01/09 13:05:35;;;;;;;15.80;3.85;;;10.50;74.30;;;;;;5005051;28;20025;-72
2023/01/09 13:08:11;;;;;;;14.20;3.00;;;10.60;74.10;;;;;;5003419;28;20498;-73
2023/01/09 13:10:47;;;;;;;12.63;2.97;;;10.80;74.00;;;;;;5004331;28;20106;-73
2023/01/09 13:13:40;;;;;;;14.85;3.75;;;10.80;73.90;;;;;;5005828;28;20034;-72
2023/01/09 13:16:13;;;;;;;13.85;3.13;;;10.80;73.50;;;;;;5006604;28;20108;-71
2023/01/09 13:19:06;;;;;;;14.23;3.08;;;10.60;73.50;;;;;;5005502;28;20029;-72
2023/01/09 13:21:33;;;;;;;17.45;3.60;;;10.60;73.40;;;;;;5013015;28;20131;-71
2023/01/09 13:24:39;;;;;;;12.60;3.30;;;10.30;73.60;;;;;;5012795;28;20954;-72